This is the latest recevied weather packets stored in our database for station/object HP1CDW-10. If no packets are shown the sender has not sent any weather packets the latest 10 day(s).
| Time | Temp. | Humidity | Pressure | Rain* | Wind** | Luminosity | Snow |
|---|---|---|---|---|---|---|---|
| 1778044325 | 34.44° C | 52% | 1004 hPa | - | - | - | - |
| 1778043721 | 34.44° C | 51% | 1004.1 hPa | - | - | - | - |
| 1778043116 | 34.44° C | 51% | 1004.3 hPa | - | - | - | - |
| 1778042511 | 35° C | 51% | 1004.6 hPa | - | - | - | - |
| 1778041906 | 34.44° C | 52% | 1004.4 hPa | - | - | - | - |
| 1778041302 | 34.44° C | 52% | 1004.6 hPa | - | - | - | - |
| 1778040795 | 35° C | 51% | 1004.6 hPa | - | - | - | - |
| 1778040754 | 35° C | 51% | 1004.6 hPa | - | - | - | - |
| 1778040697 | 35° C | 51% | 1004.6 hPa | - | - | - | - |
| 1778039487 | 35.56° C | 48% | 1004.9 hPa | - | - | - | - |
| 1778038278 | 35° C | 50% | 1004.7 hPa | - | - | - | - |
| 1778037668 | 35.56° C | 48% | 1004.4 hPa | - | - | - | - |
| 1778037063 | 35.56° C | 48% | 1004.3 hPa | - | - | - | - |
| 1778036459 | 34.44° C | 51% | 1004.5 hPa | - | - | - | - |
| 1778035854 | 35.56° C | 49% | 1004.3 hPa | - | - | - | - |
| 1778035249 | 35.56° C | 48% | 1004.3 hPa | - | - | - | - |
| 1778034644 | 35.56° C | 48% | 1004.2 hPa | - | - | - | - |
| 1778034040 | 35.56° C | 48% | 1004 hPa | - | - | - | - |
| 1778033435 | 35.56° C | 48% | 1003.8 hPa | - | - | - | - |
| 1778033116 | 35.56° C | 48% | 1003.8 hPa | - | - | - | - |
| 1778032511 | 35.56° C | 48% | 1003.8 hPa | - | - | - | - |
| 1778031906 | 35.56° C | 48% | 1003.8 hPa | - | - | - | - |
| 1778030697 | 36.11° C | 48% | 1003.7 hPa | - | - | - | - |
| 1778030092 | 36.11° C | 48% | 1003.6 hPa | - | - | - | - |
| 1778029487 | 36.11° C | 48% | 1003.3 hPa | - | - | - | - |
* Rain since midnight (hover to see other rain measurements)
** Current wind speed in m/s (hover to see current wind gust speed)